sensor_id;sensor_type;location;lat;lon;timestamp;pressure;altitude;pressure_sealevel;temperature;humidity
45323;BME280;31382;50.200;8.674;2022-10-16T00:04:46;100048.44;;;17.43;79.99
45323;BME280;31382;50.200;8.674;2022-10-16T00:09:47;100033.09;;;17.49;79.70
45323;BME280;31382;50.200;8.674;2022-10-16T00:14:49;100036.66;;;17.49;79.57
45323;BME280;31382;50.200;8.674;2022-10-16T00:19:50;100031.81;;;17.51;79.58
45323;BME280;31382;50.200;8.674;2022-10-16T00:24:52;100036.16;;;17.40;79.84
45323;BME280;31382;50.200;8.674;2022-10-16T00:29:53;100035.69;;;17.43;79.63
45323;BME280;31382;50.200;8.674;2022-10-16T00:34:54;100042.09;;;17.49;79.75
45323;BME280;31382;50.200;8.674;2022-10-16T00:39:56;100033.50;;;17.52;79.46
45323;BME280;31382;50.200;8.674;2022-10-16T00:44:57;100032.78;;;17.57;79.57
45323;BME280;31382;50.200;8.674;2022-10-16T00:50:06;100029.16;;;17.63;79.40
45323;BME280;31382;50.200;8.674;2022-10-16T00:55:09;100035.56;;;17.69;79.44
45323;BME280;31382;50.200;8.674;2022-10-16T01:00:14;100041.00;;;17.69;79.37
45323;BME280;31382;50.200;8.674;2022-10-16T01:05:16;100052.47;;;17.71;79.61
45323;BME280;31382;50.200;8.674;2022-10-16T01:20:47;100074.59;;;17.74;80.06
45323;BME280;31382;50.200;8.674;2022-10-16T01:31:05;100055.94;;;17.78;79.92
45323;BME280;31382;50.200;8.674;2022-10-16T01:36:14;100049.97;;;17.88;79.67
45323;BME280;31382;50.200;8.674;2022-10-16T01:41:22;100044.91;;;17.91;79.09
45323;BME280;31382;50.200;8.674;2022-10-16T01:46:26;100053.66;;;17.93;79.50
45323;BME280;31382;50.200;8.674;2022-10-16T01:51:29;100071.63;;;17.94;79.37
45323;BME280;31382;50.200;8.674;2022-10-16T01:56:31;100070.41;;;17.90;79.66
45323;BME280;31382;50.200;8.674;2022-10-16T02:01:35;100049.84;;;17.94;79.53
45323;BME280;31382;50.200;8.674;2022-10-16T02:06:38;100055.31;;;17.94;79.81
45323;BME280;31382;50.200;8.674;2022-10-16T02:11:39;100071.38;;;17.96;79.71
45323;BME280;31382;50.200;8.674;2022-10-16T02:16:44;100071.38;;;17.96;79.78
45323;BME280;31382;50.200;8.674;2022-10-16T02:21:58;100076.47;;;17.92;80.08
45323;BME280;31382;50.200;8.674;2022-10-16T02:32:34;100080.84;;;17.93;80.23
45323;BME280;31382;50.200;8.674;2022-10-16T02:37:38;100065.59;;;17.92;80.13
45323;BME280;31382;50.200;8.674;2022-10-16T02:42:40;100081.53;;;17.89;80.31
45323;BME280;31382;50.200;8.674;2022-10-16T02:47:41;100077.81;;;17.83;80.62
45323;BME280;31382;50.200;8.674;2022-10-16T02:52:43;100083.41;;;17.88;80.55
45323;BME280;31382;50.200;8.674;2022-10-16T02:57:44;100084.94;;;17.84;80.37
45323;BME280;31382;50.200;8.674;2022-10-16T03:02:46;100081.81;;;17.80;80.57
45323;BME280;31382;50.200;8.674;2022-10-16T03:07:48;100090.84;;;17.62;80.95
45323;BME280;31382;50.200;8.674;2022-10-16T03:12:49;100120.59;;;17.57;81.21
45323;BME280;31382;50.200;8.674;2022-10-16T03:17:51;100116.91;;;17.52;81.32
45323;BME280;31382;50.200;8.674;2022-10-16T03:22:52;100107.78;;;17.46;81.38
45323;BME280;31382;50.200;8.674;2022-10-16T03:27:53;100113.59;;;17.50;81.26
45323;BME280;31382;50.200;8.674;2022-10-16T03:32:55;100124.81;;;17.53;80.68
45323;BME280;31382;50.200;8.674;2022-10-16T03:37:56;100127.41;;;17.48;80.87
45323;BME280;31382;50.200;8.674;2022-10-16T03:42:58;100124.91;;;17.47;80.82
45323;BME280;31382;50.200;8.674;2022-10-16T03:47:59;100137.69;;;17.46;80.54
45323;BME280;31382;50.200;8.674;2022-10-16T03:53:01;100126.59;;;17.48;80.56
45323;BME280;31382;50.200;8.674;2022-10-16T03:58:02;100128.66;;;17.45;80.42
45323;BME280;31382;50.200;8.674;2022-10-16T04:03:03;100129.56;;;17.39;80.46
45323;BME280;31382;50.200;8.674;2022-10-16T04:08:05;100130.19;;;17.41;80.34
45323;BME280;31382;50.200;8.674;2022-10-16T04:13:07;100134.78;;;17.41;80.31
45323;BME280;31382;50.200;8.674;2022-10-16T04:18:08;100139.78;;;17.44;80.03
45323;BME280;31382;50.200;8.674;2022-10-16T04:23:10;100139.91;;;17.49;80.17
45323;BME280;31382;50.200;8.674;2022-10-16T04:28:11;100141.72;;;17.55;79.87
45323;BME280;31382;50.200;8.674;2022-10-16T04:33:12;100154.06;;;17.58;79.87
45323;BME280;31382;50.200;8.674;2022-10-16T04:38:14;100162.53;;;17.50;79.93
45323;BME280;31382;50.200;8.674;2022-10-16T04:43:15;100165.38;;;17.55;79.85
45323;BME280;31382;50.200;8.674;2022-10-16T04:48:17;100157.75;;;17.63;79.76
45323;BME280;31382;50.200;8.674;2022-10-16T04:53:19;100159.41;;;17.64;79.59
45323;BME280;31382;50.200;8.674;2022-10-16T04:58:20;100149.72;;;17.69;79.47
45323;BME280;31382;50.200;8.674;2022-10-16T05:03:22;100155.56;;;17.72;79.46
45323;BME280;31382;50.200;8.674;2022-10-16T05:08:23;100161.81;;;17.73;79.45
45323;BME280;31382;50.200;8.674;2022-10-16T05:13:25;100164.53;;;17.73;79.15
45323;BME280;31382;50.200;8.674;2022-10-16T05:18:26;100169.38;;;17.71;79.28
45323;BME280;31382;50.200;8.674;2022-10-16T05:23:27;100161.81;;;17.73;79.42
45323;BME280;31382;50.200;8.674;2022-10-16T05:28:29;100169.53;;;17.76;79.11
45323;BME280;31382;50.200;8.674;2022-10-16T05:33:31;100163.88;;;17.77;79.21
45323;BME280;31382;50.200;8.674;2022-10-16T05:38:34;100173.88;;;17.77;79.03
45323;BME280;31382;50.200;8.674;2022-10-16T05:43:35;100163.00;;;17.77;79.39
45323;BME280;31382;50.200;8.674;2022-10-16T05:48:36;100167.63;;;17.76;79.06
45323;BME280;31382;50.200;8.674;2022-10-16T05:53:39;100166.81;;;17.76;79.15
45323;BME280;31382;50.200;8.674;2022-10-16T05:58:41;100179.31;;;17.77;79.20
45323;BME280;31382;50.200;8.674;2022-10-16T06:03:43;100179.94;;;17.79;79.13
45323;BME280;31382;50.200;8.674;2022-10-16T06:08:46;100187.88;;;17.80;78.95
45323;BME280;31382;50.200;8.674;2022-10-16T06:13:52;100204.78;;;17.82;78.91
45323;BME280;31382;50.200;8.674;2022-10-16T06:18:55;100204.16;;;17.87;79.06
45323;BME280;31382;50.200;8.674;2022-10-16T06:24:01;100212.31;;;17.87;78.90
45323;BME280;31382;50.200;8.674;2022-10-16T06:29:02;100211.25;;;17.88;78.92
45323;BME280;31382;50.200;8.674;2022-10-16T06:34:04;100224.00;;;17.88;79.00
45323;BME280;31382;50.200;8.674;2022-10-16T06:39:07;100227.56;;;17.88;79.24
45323;BME280;31382;50.200;8.674;2022-10-16T06:44:08;100231.34;;;17.87;79.08
45323;BME280;31382;50.200;8.674;2022-10-16T06:49:10;100227.13;;;17.91;79.01
45323;BME280;31382;50.200;8.674;2022-10-16T06:54:11;100220.97;;;17.96;78.91
45323;BME280;31382;50.200;8.674;2022-10-16T06:59:13;100230.44;;;17.93;79.31
45323;BME280;31382;50.200;8.674;2022-10-16T07:04:14;100224.63;;;17.90;79.12
45323;BME280;31382;50.200;8.674;2022-10-16T07:09:15;100230.56;;;17.98;79.07
45323;BME280;31382;50.200;8.674;2022-10-16T07:14:19;100252.09;;;18.00;79.15
45323;BME280;31382;50.200;8.674;2022-10-16T07:19:21;100259.22;;;18.01;78.96
45323;BME280;31382;50.200;8.674;2022-10-16T07:24:23;100265.25;;;18.03;78.94
45323;BME280;31382;50.200;8.674;2022-10-16T07:29:24;100272.94;;;18.06;78.95
45323;BME280;31382;50.200;8.674;2022-10-16T07:34:26;100286.56;;;18.06;78.98
45323;BME280;31382;50.200;8.674;2022-10-16T07:39:28;100301.38;;;17.92;79.48
45323;BME280;31382;50.200;8.674;2022-10-16T07:44:29;100303.19;;;17.98;79.25
45323;BME280;31382;50.200;8.674;2022-10-16T07:49:31;100324.34;;;17.96;79.36
45323;BME280;31382;50.200;8.674;2022-10-16T07:54:32;100330.59;;;17.96;79.34
45323;BME280;31382;50.200;8.674;2022-10-16T07:59:34;100330.16;;;17.99;79.37
45323;BME280;31382;50.200;8.674;2022-10-16T08:04:35;100336.00;;;18.03;79.38
45323;BME280;31382;50.200;8.674;2022-10-16T08:09:37;100348.00;;;17.95;79.72
45323;BME280;31382;50.200;8.674;2022-10-16T08:14:38;100354.63;;;17.99;79.62
45323;BME280;31382;50.200;8.674;2022-10-16T08:19:47;100351.41;;;18.09;79.01
45323;BME280;31382;50.200;8.674;2022-10-16T08:24:48;100352.16;;;18.16;78.96
45323;BME280;31382;50.200;8.674;2022-10-16T08:29:50;100374.75;;;18.17;78.89
45323;BME280;31382;50.200;8.674;2022-10-16T08:34:51;100387.28;;;18.18;78.97
45323;BME280;31382;50.200;8.674;2022-10-16T08:39:52;100388.81;;;17.89;80.06
45323;BME280;31382;50.200;8.674;2022-10-16T08:45:08;100389.28;;;17.86;79.74
45323;BME280;31382;50.200;8.674;2022-10-16T08:50:26;100399.56;;;17.77;80.13
45323;BME280;31382;50.200;8.674;2022-10-16T08:55:33;100402.22;;;17.90;80.00
45323;BME280;31382;50.200;8.674;2022-10-16T09:00:38;100400.50;;;17.96;79.88
45323;BME280;31382;50.200;8.674;2022-10-16T09:05:53;100398.31;;;18.04;79.89
45323;BME280;31382;50.200;8.674;2022-10-16T09:16:34;100416.00;;;18.14;80.10
45323;BME280;31382;50.200;8.674;2022-10-16T09:21:41;100430.94;;;18.04;80.72
45323;BME280;31382;50.200;8.674;2022-10-16T09:26:43;100450.75;;;17.93;80.82
45323;BME280;31382;50.200;8.674;2022-10-16T09:31:45;100450.66;;;18.00;80.91
45323;BME280;31382;50.200;8.674;2022-10-16T09:36:47;100449.22;;;17.97;80.78
45323;BME280;31382;50.200;8.674;2022-10-16T09:41:49;100464.47;;;17.98;80.84
45323;BME280;31382;50.200;8.674;2022-10-16T09:47:02;100461.03;;;18.10;80.43
45323;BME280;31382;50.200;8.674;2022-10-16T09:52:12;100461.97;;;18.22;80.44
45323;BME280;31382;50.200;8.674;2022-10-16T09:57:15;100460.34;;;18.39;80.47
45323;BME280;31382;50.200;8.674;2022-10-16T10:02:19;100464.38;;;18.55;80.14
45323;BME280;31382;50.200;8.674;2022-10-16T10:07:32;100473.31;;;18.62;80.29
45323;BME280;31382;50.200;8.674;2022-10-16T10:12:44;100476.41;;;18.66;80.14
45323;BME280;31382;50.200;8.674;2022-10-16T10:17:51;100473.59;;;18.73;80.10
45323;BME280;31382;50.200;8.674;2022-10-16T10:22:53;100471.81;;;18.85;80.53
45323;BME280;31382;50.200;8.674;2022-10-16T10:38:56;100461.94;;;19.51;79.94
45323;BME280;31382;50.200;8.674;2022-10-16T10:49:31;100471.16;;;19.80;79.32
45323;BME280;31382;50.200;8.674;2022-10-16T10:54:43;100464.41;;;19.83;78.81
45323;BME280;31382;50.200;8.674;2022-10-16T11:05:41;100454.72;;;19.99;78.73
45323;BME280;31382;50.200;8.674;2022-10-16T11:15:55;100447.94;;;20.37;77.38
45323;BME280;31382;50.200;8.674;2022-10-16T11:21:04;100449.25;;;20.34;76.96
45323;BME280;31382;50.200;8.674;2022-10-16T11:26:14;100455.06;;;20.62;76.15
45323;BME280;31382;50.200;8.674;2022-10-16T11:36:47;100453.59;;;20.83;76.32
45323;BME280;31382;50.200;8.674;2022-10-16T11:41:56;100455.38;;;20.89;75.85
45323;BME280;31382;50.200;8.674;2022-10-16T11:47:35;100449.50;;;20.97;76.14
45323;BME280;31382;50.200;8.674;2022-10-16T11:58:06;100452.50;;;21.24;74.86
45323;BME280;31382;50.200;8.674;2022-10-16T12:03:36;100449.66;;;21.31;75.22
45323;BME280;31382;50.200;8.674;2022-10-16T12:08:36;100446.41;;;21.34;74.83
45323;BME280;31382;50.200;8.674;2022-10-16T12:13:40;100456.59;;;21.50;74.04
45323;BME280;31382;50.200;8.674;2022-10-16T12:18:44;100457.44;;;21.68;74.43
45323;BME280;31382;50.200;8.674;2022-10-16T12:23:51;100462.16;;;21.55;73.36
45323;BME280;31382;50.200;8.674;2022-10-16T12:28:54;100461.22;;;21.50;73.57
45323;BME280;31382;50.200;8.674;2022-10-16T12:33:59;100464.31;;;21.53;73.50
45323;BME280;31382;50.200;8.674;2022-10-16T12:39:02;100458.44;;;21.62;72.98
45323;BME280;31382;50.200;8.674;2022-10-16T12:44:04;100461.56;;;21.53;73.05
45323;BME280;31382;50.200;8.674;2022-10-16T12:54:39;100460.09;;;21.63;72.49
45323;BME280;31382;50.200;8.674;2022-10-16T13:05:12;100482.16;;;21.90;71.65
45323;BME280;31382;50.200;8.674;2022-10-16T13:10:25;100464.78;;;21.96;73.44
45323;BME280;31382;50.200;8.674;2022-10-16T13:15:44;100472.47;;;21.82;71.69
45323;BME280;31382;50.200;8.674;2022-10-16T13:21:00;100481.28;;;21.84;71.32
45323;BME280;31382;50.200;8.674;2022-10-16T13:26:26;100481.94;;;21.91;71.01
45323;BME280;31382;50.200;8.674;2022-10-16T13:31:32;100482.84;;;21.97;71.39
45323;BME280;31382;50.200;8.674;2022-10-16T13:36:47;100472.22;;;22.01;70.79
45323;BME280;31382;50.200;8.674;2022-10-16T13:42:01;100473.22;;;22.11;69.99
45323;BME280;31382;50.200;8.674;2022-10-16T13:47:29;100472.91;;;22.25;69.94
45323;BME280;31382;50.200;8.674;2022-10-16T13:52:31;100478.03;;;22.21;70.52
45323;BME280;31382;50.200;8.674;2022-10-16T13:57:33;100472.66;;;22.26;69.91
45323;BME280;31382;50.200;8.674;2022-10-16T14:02:37;100467.66;;;22.23;69.86
45323;BME280;31382;50.200;8.674;2022-10-16T14:07:40;100462.94;;;22.18;69.83
45323;BME280;31382;50.200;8.674;2022-10-16T14:12:43;100469.09;;;22.26;69.95
45323;BME280;31382;50.200;8.674;2022-10-16T14:17:49;100463.78;;;22.36;69.45
45323;BME280;31382;50.200;8.674;2022-10-16T14:22:58;100465.41;;;22.37;72.04
45323;BME280;31382;50.200;8.674;2022-10-16T14:38:23;100485.59;;;22.48;70.44
45323;BME280;31382;50.200;8.674;2022-10-16T14:43:44;100484.00;;;22.52;70.11
45323;BME280;31382;50.200;8.674;2022-10-16T14:48:58;100481.41;;;22.62;69.49
45323;BME280;31382;50.200;8.674;2022-10-16T14:54:01;100485.53;;;22.65;70.13
45323;BME280;31382;50.200;8.674;2022-10-16T14:59:03;100486.97;;;22.67;70.25
45323;BME280;31382;50.200;8.674;2022-10-16T15:04:04;100476.00;;;22.67;69.64
45323;BME280;31382;50.200;8.674;2022-10-16T15:09:06;100483.94;;;22.69;69.79
45323;BME280;31382;50.200;8.674;2022-10-16T15:14:13;100480.47;;;22.73;69.64
45323;BME280;31382;50.200;8.674;2022-10-16T15:19:19;100484.41;;;22.83;69.78
45323;BME280;31382;50.200;8.674;2022-10-16T15:24:21;100494.53;;;22.82;69.30
45323;BME280;31382;50.200;8.674;2022-10-16T15:29:22;100489.75;;;22.72;68.96
45323;BME280;31382;50.200;8.674;2022-10-16T15:34:23;100490.78;;;22.66;69.00
45323;BME280;31382;50.200;8.674;2022-10-16T15:39:25;100498.94;;;22.61;69.54
45323;BME280;31382;50.200;8.674;2022-10-16T15:44:26;100506.75;;;22.52;69.19
45323;BME280;31382;50.200;8.674;2022-10-16T15:49:31;100511.81;;;22.44;69.08
45323;BME280;31382;50.200;8.674;2022-10-16T15:54:32;100504.63;;;22.37;69.08
45323;BME280;31382;50.200;8.674;2022-10-16T15:59:34;100500.97;;;22.32;69.22
45323;BME280;31382;50.200;8.674;2022-10-16T16:04:35;100517.78;;;22.24;69.89
45323;BME280;31382;50.200;8.674;2022-10-16T16:09:44;100516.78;;;22.13;70.17
45323;BME280;31382;50.200;8.674;2022-10-16T16:14:47;100511.72;;;22.05;70.41
45323;BME280;31382;50.200;8.674;2022-10-16T16:19:50;100513.19;;;21.95;70.73
45323;BME280;31382;50.200;8.674;2022-10-16T16:24:52;100515.53;;;21.87;71.10
45323;BME280;31382;50.200;8.674;2022-10-16T16:29:53;100521.81;;;21.70;71.77
45323;BME280;31382;50.200;8.674;2022-10-16T16:34:56;100519.78;;;21.66;71.57
45323;BME280;31382;50.200;8.674;2022-10-16T16:39:57;100516.97;;;21.61;71.47
45323;BME280;31382;50.200;8.674;2022-10-16T16:45:02;100521.75;;;21.53;71.65
45323;BME280;31382;50.200;8.674;2022-10-16T16:50:03;100526.78;;;21.45;71.86
45323;BME280;31382;50.200;8.674;2022-10-16T16:55:06;100524.38;;;21.36;71.85
45323;BME280;31382;50.200;8.674;2022-10-16T17:00:08;100528.59;;;21.27;72.44
45323;BME280;31382;50.200;8.674;2022-10-16T17:05:10;100536.59;;;21.17;72.61
45323;BME280;31382;50.200;8.674;2022-10-16T17:10:11;100542.09;;;21.05;72.72
45323;BME280;31382;50.200;8.674;2022-10-16T17:15:12;100556.97;;;20.97;72.73
45323;BME280;31382;50.200;8.674;2022-10-16T17:20:14;100559.22;;;20.89;73.08
45323;BME280;31382;50.200;8.674;2022-10-16T17:25:15;100557.94;;;20.79;73.09
45323;BME280;31382;50.200;8.674;2022-10-16T17:30:18;100558.75;;;20.68;74.09
45323;BME280;31382;50.200;8.674;2022-10-16T17:35:19;100567.31;;;20.60;73.82
45323;BME280;31382;50.200;8.674;2022-10-16T17:40:20;100574.97;;;20.51;74.28
45323;BME280;31382;50.200;8.674;2022-10-16T17:45:22;100571.78;;;20.43;74.58
45323;BME280;31382;50.200;8.674;2022-10-16T17:50:23;100586.38;;;20.36;74.27
45323;BME280;31382;50.200;8.674;2022-10-16T17:55:25;100574.94;;;20.28;74.80
45323;BME280;31382;50.200;8.674;2022-10-16T18:00:27;100580.38;;;20.16;74.77
45323;BME280;31382;50.200;8.674;2022-10-16T18:05:29;100576.56;;;20.05;74.59
45323;BME280;31382;50.200;8.674;2022-10-16T18:10:30;100584.72;;;19.93;74.81
45323;BME280;31382;50.200;8.674;2022-10-16T18:15:31;100590.38;;;19.80;75.04
45323;BME280;31382;50.200;8.674;2022-10-16T18:20:33;100591.97;;;19.69;75.12
45323;BME280;31382;50.200;8.674;2022-10-16T18:25:34;100596.53;;;19.57;75.35
45323;BME280;31382;50.200;8.674;2022-10-16T18:30:36;100603.56;;;19.46;75.55
45323;BME280;31382;50.200;8.674;2022-10-16T18:35:37;100599.47;;;19.37;75.29
45323;BME280;31382;50.200;8.674;2022-10-16T18:40:38;100601.47;;;19.30;75.49
45323;BME280;31382;50.200;8.674;2022-10-16T18:45:40;100612.91;;;19.20;75.61
45323;BME280;31382;50.200;8.674;2022-10-16T18:50:41;100617.19;;;19.09;75.76
45323;BME280;31382;50.200;8.674;2022-10-16T18:55:50;100610.38;;;19.00;75.62
45323;BME280;31382;50.200;8.674;2022-10-16T19:00:52;100602.28;;;18.93;75.95
45323;BME280;31382;50.200;8.674;2022-10-16T19:05:53;100604.25;;;18.86;75.99
45323;BME280;31382;50.200;8.674;2022-10-16T19:10:55;100611.81;;;18.77;76.03
45323;BME280;31382;50.200;8.674;2022-10-16T19:15:56;100619.66;;;18.67;76.28
45323;BME280;31382;50.200;8.674;2022-10-16T19:21:05;100613.06;;;18.56;76.45
45323;BME280;31382;50.200;8.674;2022-10-16T19:26:14;100608.06;;;18.53;76.43
45323;BME280;31382;50.200;8.674;2022-10-16T19:31:18;100615.22;;;18.48;76.39
45323;BME280;31382;50.200;8.674;2022-10-16T19:41:26;100615.91;;;18.36;76.45
45323;BME280;31382;50.200;8.674;2022-10-16T19:46:29;100618.91;;;18.28;76.49
45323;BME280;31382;50.200;8.674;2022-10-16T19:51:32;100625.69;;;18.19;76.64
45323;BME280;31382;50.200;8.674;2022-10-16T19:56:34;100629.38;;;17.99;77.23
45323;BME280;31382;50.200;8.674;2022-10-16T20:01:36;100638.78;;;17.97;77.38
45323;BME280;31382;50.200;8.674;2022-10-16T20:06:38;100648.00;;;17.96;77.22
45323;BME280;31382;50.200;8.674;2022-10-16T20:11:41;100656.59;;;17.93;77.25
45323;BME280;31382;50.200;8.674;2022-10-16T20:16:42;100655.38;;;17.82;77.36
45323;BME280;31382;50.200;8.674;2022-10-16T20:21:44;100661.25;;;17.86;77.50
45323;BME280;31382;50.200;8.674;2022-10-16T20:26:45;100664.19;;;17.84;77.33
45323;BME280;31382;50.200;8.674;2022-10-16T20:31:46;100656.41;;;17.81;77.36
45323;BME280;31382;50.200;8.674;2022-10-16T20:36:48;100665.63;;;17.80;76.94
45323;BME280;31382;50.200;8.674;2022-10-16T20:41:50;100666.28;;;17.75;76.97
45323;BME280;31382;50.200;8.674;2022-10-16T20:46:53;100669.22;;;17.67;77.30
45323;BME280;31382;50.200;8.674;2022-10-16T20:51:55;100666.34;;;17.62;77.12
45323;BME280;31382;50.200;8.674;2022-10-16T20:56:57;100673.00;;;17.59;77.14
45323;BME280;31382;50.200;8.674;2022-10-16T21:01:58;100676.84;;;17.52;76.97
45323;BME280;31382;50.200;8.674;2022-10-16T21:07:00;100680.19;;;17.40;77.31
45323;BME280;31382;50.200;8.674;2022-10-16T21:12:01;100674.13;;;17.38;77.20
45323;BME280;31382;50.200;8.674;2022-10-16T21:17:03;100690.69;;;17.30;77.68
45323;BME280;31382;50.200;8.674;2022-10-16T21:22:04;100680.41;;;17.25;77.21
45323;BME280;31382;50.200;8.674;2022-10-16T21:27:06;100676.47;;;17.21;77.46
45323;BME280;31382;50.200;8.674;2022-10-16T21:32:08;100678.13;;;17.16;77.32
45323;BME280;31382;50.200;8.674;2022-10-16T21:37:09;100673.38;;;17.04;77.64
45323;BME280;31382;50.200;8.674;2022-10-16T21:42:10;100677.34;;;16.95;78.02
45323;BME280;31382;50.200;8.674;2022-10-16T21:47:12;100669.41;;;16.94;78.07
45323;BME280;31382;50.200;8.674;2022-10-16T21:52:13;100676.94;;;16.98;77.78
45323;BME280;31382;50.200;8.674;2022-10-16T21:57:14;100676.06;;;16.98;77.67
45323;BME280;31382;50.200;8.674;2022-10-16T22:02:16;100674.81;;;16.94;77.37
45323;BME280;31382;50.200;8.674;2022-10-16T22:07:17;100674.22;;;16.85;77.63
45323;BME280;31382;50.200;8.674;2022-10-16T22:12:19;100675.47;;;16.82;77.27
45323;BME280;31382;50.200;8.674;2022-10-16T22:17:21;100680.66;;;16.64;77.93
45323;BME280;31382;50.200;8.674;2022-10-16T22:22:22;100673.75;;;16.68;77.58
45323;BME280;31382;50.200;8.674;2022-10-16T22:27:23;100681.28;;;16.66;77.58
45323;BME280;31382;50.200;8.674;2022-10-16T22:32:25;100689.63;;;16.58;77.58
45323;BME280;31382;50.200;8.674;2022-10-16T22:37:27;100687.50;;;16.46;77.86
45323;BME280;31382;50.200;8.674;2022-10-16T22:42:29;100693.56;;;16.42;77.91
45323;BME280;31382;50.200;8.674;2022-10-16T22:47:30;100696.09;;;16.43;77.59
45323;BME280;31382;50.200;8.674;2022-10-16T22:52:31;100698.78;;;16.43;77.56
45323;BME280;31382;50.200;8.674;2022-10-16T22:57:33;100700.25;;;16.39;77.26
45323;BME280;31382;50.200;8.674;2022-10-16T23:02:34;100715.88;;;16.31;77.45
45323;BME280;31382;50.200;8.674;2022-10-16T23:07:36;100720.66;;;16.29;77.63
45323;BME280;31382;50.200;8.674;2022-10-16T23:12:38;100719.00;;;16.28;77.64
45323;BME280;31382;50.200;8.674;2022-10-16T23:17:39;100721.09;;;16.25;77.53
45323;BME280;31382;50.200;8.674;2022-10-16T23:22:41;100717.31;;;16.20;77.31
45323;BME280;31382;50.200;8.674;2022-10-16T23:27:42;100718.56;;;16.17;77.45
45323;BME280;31382;50.200;8.674;2022-10-16T23:32:43;100726.03;;;16.09;77.62
45323;BME280;31382;50.200;8.674;2022-10-16T23:37:45;100740.63;;;16.08;77.33
45323;BME280;31382;50.200;8.674;2022-10-16T23:42:46;100740.41;;;16.02;77.56
45323;BME280;31382;50.200;8.674;2022-10-16T23:47:48;100746.22;;;15.99;77.69
45323;BME280;31382;50.200;8.674;2022-10-16T23:52:49;100735.59;;;15.98;77.61
45323;BME280;31382;50.200;8.674;2022-10-16T23:57:50;100737.88;;;15.94;77.52
